sensor_id;sensor_type;location;lat;lon;timestamp;P1;durP1;ratioP1;P2;durP2;ratioP2
11425;SDS011;5769;47.998;7.788;2023-06-04T00:02:03;1.67;;;1.63;;
11425;SDS011;5769;47.998;7.788;2023-06-04T00:04:31;2.15;;;2.05;;
11425;SDS011;5769;47.998;7.788;2023-06-04T00:06:58;1.95;;;1.88;;
11425;SDS011;5769;47.998;7.788;2023-06-04T00:09:24;2.00;;;1.90;;
11425;SDS011;5769;47.998;7.788;2023-06-04T00:11:51;1.98;;;1.88;;
11425;SDS011;5769;47.998;7.788;2023-06-04T00:14:17;1.92;;;1.83;;
11425;SDS011;5769;47.998;7.788;2023-06-04T00:16:44;2.08;;;1.98;;
11425;SDS011;5769;47.998;7.788;2023-06-04T00:19:12;2.13;;;2.05;;
11425;SDS011;5769;47.998;7.788;2023-06-04T00:21:39;2.35;;;2.25;;
11425;SDS011;5769;47.998;7.788;2023-06-04T00:24:06;2.25;;;2.15;;
11425;SDS011;5769;47.998;7.788;2023-06-04T00:26:32;2.10;;;2.00;;
11425;SDS011;5769;47.998;7.788;2023-06-04T00:29:00;2.25;;;2.15;;
11425;SDS011;5769;47.998;7.788;2023-06-04T00:31:26;2.42;;;2.33;;
11425;SDS011;5769;47.998;7.788;2023-06-04T00:33:54;2.67;;;2.58;;
11425;SDS011;5769;47.998;7.788;2023-06-04T00:36:21;2.53;;;2.42;;
11425;SDS011;5769;47.998;7.788;2023-06-04T00:38:47;2.45;;;2.35;;
11425;SDS011;5769;47.998;7.788;2023-06-04T00:41:14;2.25;;;2.15;;
11425;SDS011;5769;47.998;7.788;2023-06-04T00:43:41;2.45;;;2.35;;
11425;SDS011;5769;47.998;7.788;2023-06-04T00:46:10;2.45;;;2.35;;
11425;SDS011;5769;47.998;7.788;2023-06-04T00:48:42;2.88;;;2.78;;
11425;SDS011;5769;47.998;7.788;2023-06-04T00:51:09;2.95;;;2.85;;
11425;SDS011;5769;47.998;7.788;2023-06-04T00:53:38;2.50;;;2.40;;
11425;SDS011;5769;47.998;7.788;2023-06-04T00:56:05;3.10;;;3.00;;
11425;SDS011;5769;47.998;7.788;2023-06-04T00:58:33;2.95;;;2.85;;
11425;SDS011;5769;47.998;7.788;2023-06-04T01:01:04;2.85;;;2.75;;
11425;SDS011;5769;47.998;7.788;2023-06-04T01:03:36;3.00;;;2.90;;
11425;SDS011;5769;47.998;7.788;2023-06-04T01:06:08;3.28;;;3.17;;
11425;SDS011;5769;47.998;7.788;2023-06-04T01:08:47;3.28;;;3.17;;
11425;SDS011;5769;47.998;7.788;2023-06-04T01:11:16;3.92;;;3.80;;
11425;SDS011;5769;47.998;7.788;2023-06-04T01:13:42;4.15;;;3.95;;
11425;SDS011;5769;47.998;7.788;2023-06-04T01:16:09;4.22;;;4.13;;
11425;SDS011;5769;47.998;7.788;2023-06-04T01:18:38;4.63;;;4.43;;
11425;SDS011;5769;47.998;7.788;2023-06-04T01:21:08;4.30;;;4.15;;
11425;SDS011;5769;47.998;7.788;2023-06-04T01:23:40;4.82;;;4.63;;
11425;SDS011;5769;47.998;7.788;2023-06-04T01:26:13;5.22;;;5.03;;
11425;SDS011;5769;47.998;7.788;2023-06-04T01:28:40;4.25;;;4.13;;
11425;SDS011;5769;47.998;7.788;2023-06-04T01:31:09;1.98;;;1.88;;
11425;SDS011;5769;47.998;7.788;2023-06-04T01:33:37;2.42;;;2.33;;
11425;SDS011;5769;47.998;7.788;2023-06-04T01:36:04;4.20;;;4.05;;
11425;SDS011;5769;47.998;7.788;2023-06-04T01:38:35;4.82;;;4.63;;
11425;SDS011;5769;47.998;7.788;2023-06-04T01:41:01;5.68;;;5.47;;
11425;SDS011;5769;47.998;7.788;2023-06-04T01:43:29;6.38;;;6.15;;
11425;SDS011;5769;47.998;7.788;2023-06-04T01:46:00;6.72;;;6.43;;
11425;SDS011;5769;47.998;7.788;2023-06-04T01:48:26;7.60;;;7.30;;
11425;SDS011;5769;47.998;7.788;2023-06-04T01:50:53;7.05;;;6.75;;
11425;SDS011;5769;47.998;7.788;2023-06-04T01:53:20;6.63;;;6.40;;
11425;SDS011;5769;47.998;7.788;2023-06-04T01:55:46;7.38;;;7.10;;
11425;SDS011;5769;47.998;7.788;2023-06-04T01:58:14;8.35;;;8.05;;
11425;SDS011;5769;47.998;7.788;2023-06-04T02:00:44;7.93;;;7.63;;
11425;SDS011;5769;47.998;7.788;2023-06-04T02:03:11;8.40;;;8.10;;
11425;SDS011;5769;47.998;7.788;2023-06-04T02:05:40;9.48;;;9.10;;
11425;SDS011;5769;47.998;7.788;2023-06-04T02:08:09;12.70;;;11.95;;
11425;SDS011;5769;47.998;7.788;2023-06-04T02:10:37;19.13;;;17.08;;
11425;SDS011;5769;47.998;7.788;2023-06-04T02:13:03;14.88;;;13.57;;
11425;SDS011;5769;47.998;7.788;2023-06-04T02:15:31;14.38;;;13.23;;
11425;SDS011;5769;47.998;7.788;2023-06-04T02:18:10;16.35;;;14.90;;
11425;SDS011;5769;47.998;7.788;2023-06-04T02:20:41;15.80;;;14.43;;
11425;SDS011;5769;47.998;7.788;2023-06-04T02:23:08;13.52;;;12.60;;
11425;SDS011;5769;47.998;7.788;2023-06-04T02:25:35;12.68;;;11.82;;
11425;SDS011;5769;47.998;7.788;2023-06-04T02:28:02;13.30;;;12.32;;
11425;SDS011;5769;47.998;7.788;2023-06-04T02:30:28;11.27;;;10.80;;
11425;SDS011;5769;47.998;7.788;2023-06-04T02:32:55;12.15;;;11.50;;
11425;SDS011;5769;47.998;7.788;2023-06-04T02:35:27;11.98;;;11.32;;
11425;SDS011;5769;47.998;7.788;2023-06-04T02:37:54;12.40;;;11.65;;
11425;SDS011;5769;47.998;7.788;2023-06-04T02:40:22;13.98;;;12.95;;
11425;SDS011;5769;47.998;7.788;2023-06-04T02:42:49;13.20;;;12.35;;
11425;SDS011;5769;47.998;7.788;2023-06-04T02:45:16;14.38;;;13.32;;
11425;SDS011;5769;47.998;7.788;2023-06-04T02:47:43;14.48;;;13.25;;
11425;SDS011;5769;47.998;7.788;2023-06-04T02:50:09;13.52;;;12.52;;
11425;SDS011;5769;47.998;7.788;2023-06-04T02:52:38;15.57;;;14.18;;
11425;SDS011;5769;47.998;7.788;2023-06-04T02:55:05;15.18;;;13.93;;
11425;SDS011;5769;47.998;7.788;2023-06-04T02:57:33;15.18;;;13.98;;
11425;SDS011;5769;47.998;7.788;2023-06-04T03:00:01;13.65;;;12.65;;
11425;SDS011;5769;47.998;7.788;2023-06-04T03:02:35;14.57;;;13.45;;
11425;SDS011;5769;47.998;7.788;2023-06-04T03:05:02;17.10;;;15.55;;
11425;SDS011;5769;47.998;7.788;2023-06-04T03:07:29;18.33;;;16.48;;
11425;SDS011;5769;47.998;7.788;2023-06-04T03:09:57;20.70;;;18.52;;
11425;SDS011;5769;47.998;7.788;2023-06-04T03:12:24;24.48;;;22.10;;
11425;SDS011;5769;47.998;7.788;2023-06-04T03:14:51;30.17;;;27.00;;
11425;SDS011;5769;47.998;7.788;2023-06-04T03:17:18;31.08;;;27.77;;
11425;SDS011;5769;47.998;7.788;2023-06-04T03:19:45;19.63;;;17.80;;
11425;SDS011;5769;47.998;7.788;2023-06-04T03:22:12;18.13;;;16.33;;
11425;SDS011;5769;47.998;7.788;2023-06-04T03:24:40;20.70;;;18.77;;
11425;SDS011;5769;47.998;7.788;2023-06-04T03:27:09;18.30;;;16.55;;
11425;SDS011;5769;47.998;7.788;2023-06-04T03:29:36;17.25;;;15.63;;
11425;SDS011;5769;47.998;7.788;2023-06-04T03:32:04;16.80;;;15.27;;
11425;SDS011;5769;47.998;7.788;2023-06-04T03:34:31;15.32;;;14.02;;
11425;SDS011;5769;47.998;7.788;2023-06-04T03:36:58;12.85;;;12.00;;
11425;SDS011;5769;47.998;7.788;2023-06-04T03:39:25;13.18;;;12.43;;
11425;SDS011;5769;47.998;7.788;2023-06-04T03:41:52;10.95;;;10.52;;
11425;SDS011;5769;47.998;7.788;2023-06-04T03:44:21;10.80;;;10.40;;
11425;SDS011;5769;47.998;7.788;2023-06-04T03:46:48;11.93;;;11.38;;
11425;SDS011;5769;47.998;7.788;2023-06-04T03:49:15;10.65;;;10.25;;
11425;SDS011;5769;47.998;7.788;2023-06-04T03:51:42;10.90;;;10.43;;
11425;SDS011;5769;47.998;7.788;2023-06-04T03:54:10;9.52;;;9.13;;
11425;SDS011;5769;47.998;7.788;2023-06-04T03:56:37;8.40;;;8.10;;
11425;SDS011;5769;47.998;7.788;2023-06-04T03:59:04;8.55;;;8.18;;
11425;SDS011;5769;47.998;7.788;2023-06-04T04:01:32;9.00;;;8.70;;
11425;SDS011;5769;47.998;7.788;2023-06-04T04:03:59;8.50;;;8.20;;
11425;SDS011;5769;47.998;7.788;2023-06-04T04:06:26;8.73;;;8.40;;
11425;SDS011;5769;47.998;7.788;2023-06-04T04:08:52;8.43;;;8.13;;
11425;SDS011;5769;47.998;7.788;2023-06-04T04:11:20;6.05;;;5.85;;
11425;SDS011;5769;47.998;7.788;2023-06-04T04:13:47;5.80;;;5.60;;
11425;SDS011;5769;47.998;7.788;2023-06-04T04:16:14;6.80;;;6.53;;
11425;SDS011;5769;47.998;7.788;2023-06-04T04:18:42;7.50;;;7.20;;
11425;SDS011;5769;47.998;7.788;2023-06-04T04:21:09;7.18;;;6.93;;
11425;SDS011;5769;47.998;7.788;2023-06-04T04:23:37;7.95;;;7.65;;
11425;SDS011;5769;47.998;7.788;2023-06-04T04:26:05;7.22;;;6.95;;
11425;SDS011;5769;47.998;7.788;2023-06-04T04:28:32;7.65;;;7.35;;
11425;SDS011;5769;47.998;7.788;2023-06-04T04:30:59;8.23;;;7.93;;
11425;SDS011;5769;47.998;7.788;2023-06-04T04:33:27;9.13;;;8.82;;
11425;SDS011;5769;47.998;7.788;2023-06-04T04:35:57;9.07;;;8.70;;
11425;SDS011;5769;47.998;7.788;2023-06-04T04:38:24;7.72;;;7.43;;
11425;SDS011;5769;47.998;7.788;2023-06-04T04:40:51;7.60;;;7.30;;
11425;SDS011;5769;47.998;7.788;2023-06-04T04:43:19;6.63;;;6.43;;
11425;SDS011;5769;47.998;7.788;2023-06-04T04:45:54;6.68;;;6.38;;
11425;SDS011;5769;47.998;7.788;2023-06-04T04:48:21;5.45;;;5.25;;
11425;SDS011;5769;47.998;7.788;2023-06-04T04:50:48;5.25;;;5.05;;
11425;SDS011;5769;47.998;7.788;2023-06-04T04:53:16;5.72;;;5.53;;
11425;SDS011;5769;47.998;7.788;2023-06-04T04:55:43;6.85;;;6.60;;
11425;SDS011;5769;47.998;7.788;2023-06-04T04:58:10;6.60;;;6.38;;
11425;SDS011;5769;47.998;7.788;2023-06-04T05:00:36;7.00;;;6.70;;
11425;SDS011;5769;47.998;7.788;2023-06-04T05:03:03;6.95;;;6.70;;
11425;SDS011;5769;47.998;7.788;2023-06-04T05:05:31;7.05;;;6.75;;
11425;SDS011;5769;47.998;7.788;2023-06-04T05:07:57;7.45;;;7.15;;
11425;SDS011;5769;47.998;7.788;2023-06-04T05:10:26;7.47;;;7.18;;
11425;SDS011;5769;47.998;7.788;2023-06-04T05:12:52;7.25;;;6.95;;
11425;SDS011;5769;47.998;7.788;2023-06-04T05:15:20;6.82;;;6.55;;
11425;SDS011;5769;47.998;7.788;2023-06-04T05:17:47;7.43;;;7.15;;
11425;SDS011;5769;47.998;7.788;2023-06-04T05:20:14;7.40;;;7.13;;
11425;SDS011;5769;47.998;7.788;2023-06-04T05:22:41;7.60;;;7.30;;
11425;SDS011;5769;47.998;7.788;2023-06-04T05:25:08;7.88;;;7.57;;
11425;SDS011;5769;47.998;7.788;2023-06-04T05:27:36;7.53;;;7.22;;
11425;SDS011;5769;47.998;7.788;2023-06-04T05:30:03;8.25;;;7.95;;
11425;SDS011;5769;47.998;7.788;2023-06-04T05:32:30;7.63;;;7.32;;
11425;SDS011;5769;47.998;7.788;2023-06-04T05:34:58;7.65;;;7.35;;
11425;SDS011;5769;47.998;7.788;2023-06-04T05:37:25;8.15;;;7.85;;
11425;SDS011;5769;47.998;7.788;2023-06-04T05:39:53;8.23;;;7.93;;
11425;SDS011;5769;47.998;7.788;2023-06-04T05:42:20;8.43;;;8.13;;
11425;SDS011;5769;47.998;7.788;2023-06-04T05:44:48;7.93;;;7.63;;
11425;SDS011;5769;47.998;7.788;2023-06-04T05:47:15;8.30;;;8.00;;
11425;SDS011;5769;47.998;7.788;2023-06-04T05:49:43;8.23;;;7.93;;
11425;SDS011;5769;47.998;7.788;2023-06-04T05:52:10;8.77;;;8.48;;
11425;SDS011;5769;47.998;7.788;2023-06-04T05:54:36;9.38;;;8.98;;
11425;SDS011;5769;47.998;7.788;2023-06-04T05:57:03;8.85;;;8.45;;
11425;SDS011;5769;47.998;7.788;2023-06-04T05:59:30;9.43;;;9.05;;
11425;SDS011;5769;47.998;7.788;2023-06-04T06:01:58;9.77;;;9.38;;
11425;SDS011;5769;47.998;7.788;2023-06-04T06:04:25;9.68;;;9.27;;
11425;SDS011;5769;47.998;7.788;2023-06-04T06:06:51;9.93;;;9.52;;
11425;SDS011;5769;47.998;7.788;2023-06-04T06:09:19;10.95;;;10.45;;
11425;SDS011;5769;47.998;7.788;2023-06-04T06:11:45;10.82;;;10.32;;
11425;SDS011;5769;47.998;7.788;2023-06-04T06:14:12;11.02;;;10.60;;
11425;SDS011;5769;47.998;7.788;2023-06-04T06:16:40;10.38;;;9.95;;
11425;SDS011;5769;47.998;7.788;2023-06-04T06:19:08;12.65;;;11.90;;
11425;SDS011;5769;47.998;7.788;2023-06-04T06:21:36;13.00;;;12.15;;
11425;SDS011;5769;47.998;7.788;2023-06-04T06:24:02;11.07;;;10.63;;
11425;SDS011;5769;47.998;7.788;2023-06-04T06:26:29;13.15;;;12.23;;
11425;SDS011;5769;47.998;7.788;2023-06-04T06:28:56;13.95;;;12.95;;
11425;SDS011;5769;47.998;7.788;2023-06-04T06:31:23;15.02;;;13.88;;
11425;SDS011;5769;47.998;7.788;2023-06-04T06:33:51;14.63;;;13.48;;
11425;SDS011;5769;47.998;7.788;2023-06-04T06:36:21;14.02;;;12.98;;
11425;SDS011;5769;47.998;7.788;2023-06-04T06:38:51;16.55;;;15.13;;
11425;SDS011;5769;47.998;7.788;2023-06-04T06:41:21;17.13;;;15.57;;
11425;SDS011;5769;47.998;7.788;2023-06-04T06:43:51;16.73;;;15.10;;
11425;SDS011;5769;47.998;7.788;2023-06-04T06:46:18;15.57;;;14.18;;
11425;SDS011;5769;47.998;7.788;2023-06-04T06:48:47;16.20;;;14.68;;
11425;SDS011;5769;47.998;7.788;2023-06-04T06:51:17;15.88;;;14.55;;
11425;SDS011;5769;47.998;7.788;2023-06-04T06:53:45;11.90;;;11.35;;
11425;SDS011;5769;47.998;7.788;2023-06-04T06:56:13;13.35;;;12.50;;
11425;SDS011;5769;47.998;7.788;2023-06-04T06:58:41;12.23;;;11.57;;
11425;SDS011;5769;47.998;7.788;2023-06-04T07:01:07;14.60;;;13.23;;
11425;SDS011;5769;47.998;7.788;2023-06-04T07:03:34;13.88;;;12.73;;
11425;SDS011;5769;47.998;7.788;2023-06-04T07:06:01;11.07;;;10.57;;
11425;SDS011;5769;47.998;7.788;2023-06-04T07:08:27;11.32;;;10.82;;
11425;SDS011;5769;47.998;7.788;2023-06-04T07:10:55;12.80;;;11.90;;
11425;SDS011;5769;47.998;7.788;2023-06-04T07:13:22;13.07;;;12.13;;
11425;SDS011;5769;47.998;7.788;2023-06-04T07:15:49;9.40;;;9.00;;
11425;SDS011;5769;47.998;7.788;2023-06-04T07:18:15;12.00;;;11.35;;
11425;SDS011;5769;47.998;7.788;2023-06-04T07:20:42;12.00;;;11.35;;
11425;SDS011;5769;47.998;7.788;2023-06-04T07:23:09;11.48;;;10.90;;
11425;SDS011;5769;47.998;7.788;2023-06-04T07:25:36;12.93;;;11.98;;
11425;SDS011;5769;47.998;7.788;2023-06-04T07:28:04;10.95;;;10.50;;
11425;SDS011;5769;47.998;7.788;2023-06-04T07:30:30;12.75;;;11.77;;
11425;SDS011;5769;47.998;7.788;2023-06-04T07:32:57;12.48;;;11.73;;
11425;SDS011;5769;47.998;7.788;2023-06-04T07:35:24;14.30;;;13.20;;
11425;SDS011;5769;47.998;7.788;2023-06-04T07:37:51;16.23;;;14.77;;
11425;SDS011;5769;47.998;7.788;2023-06-04T07:40:18;13.82;;;12.63;;
11425;SDS011;5769;47.998;7.788;2023-06-04T07:42:45;12.45;;;11.70;;
11425;SDS011;5769;47.998;7.788;2023-06-04T07:45:13;12.23;;;11.57;;
11425;SDS011;5769;47.998;7.788;2023-06-04T07:47:40;12.18;;;11.52;;
11425;SDS011;5769;47.998;7.788;2023-06-04T07:50:07;13.88;;;12.75;;
11425;SDS011;5769;47.998;7.788;2023-06-04T07:52:34;13.43;;;12.50;;
11425;SDS011;5769;47.998;7.788;2023-06-04T07:55:01;11.68;;;11.10;;
11425;SDS011;5769;47.998;7.788;2023-06-04T07:57:28;15.23;;;13.80;;
11425;SDS011;5769;47.998;7.788;2023-06-04T07:59:55;15.13;;;13.82;;
11425;SDS011;5769;47.998;7.788;2023-06-04T08:02:23;11.73;;;11.15;;
11425;SDS011;5769;47.998;7.788;2023-06-04T08:04:50;11.88;;;11.32;;
11425;SDS011;5769;47.998;7.788;2023-06-04T08:07:17;14.02;;;12.98;;
11425;SDS011;5769;47.998;7.788;2023-06-04T08:09:44;13.98;;;12.88;;
11425;SDS011;5769;47.998;7.788;2023-06-04T08:12:11;15.43;;;14.05;;
11425;SDS011;5769;47.998;7.788;2023-06-04T08:14:37;11.00;;;10.55;;
11425;SDS011;5769;47.998;7.788;2023-06-04T08:17:04;12.35;;;11.63;;
11425;SDS011;5769;47.998;7.788;2023-06-04T08:19:32;15.02;;;13.73;;
11425;SDS011;5769;47.998;7.788;2023-06-04T08:21:59;13.00;;;12.20;;
11425;SDS011;5769;47.998;7.788;2023-06-04T08:24:25;13.55;;;12.50;;
11425;SDS011;5769;47.998;7.788;2023-06-04T08:26:52;10.77;;;10.35;;
11425;SDS011;5769;47.998;7.788;2023-06-04T08:29:19;11.02;;;10.52;;
11425;SDS011;5769;47.998;7.788;2023-06-04T08:31:46;12.30;;;11.65;;
11425;SDS011;5769;47.998;7.788;2023-06-04T08:34:12;10.82;;;10.40;;
11425;SDS011;5769;47.998;7.788;2023-06-04T08:36:40;10.65;;;10.23;;
11425;SDS011;5769;47.998;7.788;2023-06-04T08:39:07;12.05;;;11.48;;
11425;SDS011;5769;47.998;7.788;2023-06-04T08:41:38;13.15;;;12.18;;
11425;SDS011;5769;47.998;7.788;2023-06-04T08:44:09;11.90;;;11.32;;
11425;SDS011;5769;47.998;7.788;2023-06-04T08:46:36;15.13;;;13.95;;
11425;SDS011;5769;47.998;7.788;2023-06-04T08:49:05;15.27;;;14.07;;
11425;SDS011;5769;47.998;7.788;2023-06-04T08:51:33;18.52;;;16.63;;
11425;SDS011;5769;47.998;7.788;2023-06-04T08:54:03;20.25;;;18.35;;
11425;SDS011;5769;47.998;7.788;2023-06-04T08:56:30;32.55;;;29.27;;
11425;SDS011;5769;47.998;7.788;2023-06-04T08:58:59;108.25;;;62.22;;
11425;SDS011;5769;47.998;7.788;2023-06-04T09:01:27;123.15;;;61.13;;
11425;SDS011;5769;47.998;7.788;2023-06-04T09:03:54;102.20;;;59.55;;
11425;SDS011;5769;47.998;7.788;2023-06-04T09:06:22;99.50;;;61.28;;
11425;SDS011;5769;47.998;7.788;2023-06-04T09:08:50;110.10;;;60.72;;
11425;SDS011;5769;47.998;7.788;2023-06-04T09:11:20;132.10;;;62.25;;
11425;SDS011;5769;47.998;7.788;2023-06-04T09:13:48;147.23;;;59.55;;
11425;SDS011;5769;47.998;7.788;2023-06-04T09:16:16;64.72;;;49.47;;
11425;SDS011;5769;47.998;7.788;2023-06-04T09:18:42;59.33;;;48.50;;
11425;SDS011;5769;47.998;7.788;2023-06-04T09:21:11;66.60;;;50.58;;
11425;SDS011;5769;47.998;7.788;2023-06-04T09:23:43;67.80;;;52.83;;
11425;SDS011;5769;47.998;7.788;2023-06-04T09:26:10;106.75;;;55.80;;
11425;SDS011;5769;47.998;7.788;2023-06-04T09:28:40;61.70;;;48.85;;
11425;SDS011;5769;47.998;7.788;2023-06-04T09:31:08;152.13;;;65.63;;
11425;SDS011;5769;47.998;7.788;2023-06-04T09:33:42;71.03;;;52.50;;
11425;SDS011;5769;47.998;7.788;2023-06-04T09:36:09;50.00;;;41.78;;
11425;SDS011;5769;47.998;7.788;2023-06-04T09:38:36;43.10;;;38.45;;
11425;SDS011;5769;47.998;7.788;2023-06-04T09:41:03;37.80;;;33.70;;
11425;SDS011;5769;47.998;7.788;2023-06-04T09:43:31;36.47;;;32.63;;
11425;SDS011;5769;47.998;7.788;2023-06-04T09:46:09;34.30;;;30.65;;
11425;SDS011;5769;47.998;7.788;2023-06-04T09:48:36;28.50;;;25.42;;
11425;SDS011;5769;47.998;7.788;2023-06-04T09:51:07;25.73;;;22.95;;
11425;SDS011;5769;47.998;7.788;2023-06-04T09:53:34;23.27;;;20.75;;
11425;SDS011;5769;47.998;7.788;2023-06-04T09:56:02;23.10;;;20.65;;
11425;SDS011;5769;47.998;7.788;2023-06-04T09:58:29;23.27;;;20.83;;
11425;SDS011;5769;47.998;7.788;2023-06-04T10:00:57;23.23;;;20.77;;
11425;SDS011;5769;47.998;7.788;2023-06-04T10:03:26;26.05;;;23.30;;
11425;SDS011;5769;47.998;7.788;2023-06-04T10:05:57;24.92;;;22.30;;
11425;SDS011;5769;47.998;7.788;2023-06-04T10:08:26;23.55;;;21.00;;
11425;SDS011;5769;47.998;7.788;2023-06-04T10:10:54;24.15;;;21.45;;
11425;SDS011;5769;47.998;7.788;2023-06-04T10:13:23;27.08;;;24.02;;
11425;SDS011;5769;47.998;7.788;2023-06-04T10:15:52;27.48;;;24.55;;
11425;SDS011;5769;47.998;7.788;2023-06-04T10:18:22;28.63;;;25.63;;
11425;SDS011;5769;47.998;7.788;2023-06-04T10:20:52;29.08;;;26.02;;
11425;SDS011;5769;47.998;7.788;2023-06-04T10:23:19;28.40;;;25.35;;
11425;SDS011;5769;47.998;7.788;2023-06-04T10:25:47;29.92;;;26.75;;
11425;SDS011;5769;47.998;7.788;2023-06-04T10:28:15;29.35;;;26.20;;
11425;SDS011;5769;47.998;7.788;2023-06-04T10:30:44;29.83;;;26.60;;
11425;SDS011;5769;47.998;7.788;2023-06-04T10:33:11;29.33;;;26.20;;
11425;SDS011;5769;47.998;7.788;2023-06-04T10:35:38;30.30;;;27.05;;
11425;SDS011;5769;47.998;7.788;2023-06-04T10:38:09;32.10;;;28.70;;
11425;SDS011;5769;47.998;7.788;2023-06-04T10:40:38;31.83;;;28.45;;
11425;SDS011;5769;47.998;7.788;2023-06-04T10:43:06;29.63;;;26.45;;
11425;SDS011;5769;47.998;7.788;2023-06-04T10:45:33;30.65;;;27.48;;
11425;SDS011;5769;47.998;7.788;2023-06-04T10:48:00;29.88;;;26.70;;
11425;SDS011;5769;47.998;7.788;2023-06-04T10:50:27;30.75;;;27.45;;
11425;SDS011;5769;47.998;7.788;2023-06-04T10:52:55;31.67;;;28.33;;
11425;SDS011;5769;47.998;7.788;2023-06-04T10:55:25;30.75;;;27.52;;
11425;SDS011;5769;47.998;7.788;2023-06-04T10:57:52;31.73;;;28.40;;
11425;SDS011;5769;47.998;7.788;2023-06-04T11:00:19;31.95;;;28.55;;
11425;SDS011;5769;47.998;7.788;2023-06-04T11:02:50;34.20;;;30.67;;
11425;SDS011;5769;47.998;7.788;2023-06-04T11:05:17;35.65;;;31.92;;
11425;SDS011;5769;47.998;7.788;2023-06-04T11:07:45;36.25;;;32.45;;
11425;SDS011;5769;47.998;7.788;2023-06-04T11:10:14;37.05;;;33.20;;
11425;SDS011;5769;47.998;7.788;2023-06-04T11:12:43;36.83;;;32.97;;
11425;SDS011;5769;47.998;7.788;2023-06-04T11:15:11;34.78;;;31.15;;
11425;SDS011;5769;47.998;7.788;2023-06-04T11:17:38;40.00;;;35.95;;
11425;SDS011;5769;47.998;7.788;2023-06-04T11:20:15;31.58;;;28.25;;
11425;SDS011;5769;47.998;7.788;2023-06-04T11:22:49;34.05;;;30.50;;
11425;SDS011;5769;47.998;7.788;2023-06-04T11:25:17;35.60;;;31.83;;
11425;SDS011;5769;47.998;7.788;2023-06-04T11:27:45;31.45;;;28.13;;
11425;SDS011;5769;47.998;7.788;2023-06-04T11:30:13;30.67;;;27.40;;
11425;SDS011;5769;47.998;7.788;2023-06-04T11:32:40;30.20;;;27.05;;
11425;SDS011;5769;47.998;7.788;2023-06-04T11:35:07;29.85;;;26.75;;
11425;SDS011;5769;47.998;7.788;2023-06-04T11:37:36;29.30;;;26.20;;
11425;SDS011;5769;47.998;7.788;2023-06-04T11:40:03;29.67;;;26.55;;
11425;SDS011;5769;47.998;7.788;2023-06-04T11:42:41;33.67;;;30.13;;
11425;SDS011;5769;47.998;7.788;2023-06-04T11:45:10;31.20;;;27.85;;
11425;SDS011;5769;47.998;7.788;2023-06-04T11:47:38;34.78;;;31.15;;
11425;SDS011;5769;47.998;7.788;2023-06-04T11:50:05;38.13;;;34.15;;
11425;SDS011;5769;47.998;7.788;2023-06-04T11:52:33;34.25;;;30.75;;
11425;SDS011;5769;47.998;7.788;2023-06-04T11:54:59;35.75;;;31.92;;
11425;SDS011;5769;47.998;7.788;2023-06-04T11:57:26;35.35;;;31.63;;
11425;SDS011;5769;47.998;7.788;2023-06-04T11:59:53;33.42;;;29.92;;
11425;SDS011;5769;47.998;7.788;2023-06-04T12:02:21;30.45;;;27.20;;
11425;SDS011;5769;47.998;7.788;2023-06-04T12:04:48;30.98;;;27.67;;
11425;SDS011;5769;47.998;7.788;2023-06-04T12:07:19;29.00;;;25.88;;
11425;SDS011;5769;47.998;7.788;2023-06-04T12:09:49;29.08;;;25.92;;
11425;SDS011;5769;47.998;7.788;2023-06-04T12:12:21;29.02;;;25.95;;
11425;SDS011;5769;47.998;7.788;2023-06-04T12:14:55;30.48;;;27.23;;
11425;SDS011;5769;47.998;7.788;2023-06-04T12:17:24;31.52;;;28.23;;
11425;SDS011;5769;47.998;7.788;2023-06-04T12:19:51;31.65;;;28.30;;
11425;SDS011;5769;47.998;7.788;2023-06-04T12:22:18;33.92;;;30.38;;
11425;SDS011;5769;47.998;7.788;2023-06-04T12:24:46;35.58;;;31.80;;
11425;SDS011;5769;47.998;7.788;2023-06-04T12:27:14;35.28;;;31.52;;
11425;SDS011;5769;47.998;7.788;2023-06-04T12:29:40;33.05;;;29.50;;
11425;SDS011;5769;47.998;7.788;2023-06-04T12:32:07;25.33;;;22.58;;
11425;SDS011;5769;47.998;7.788;2023-06-04T12:34:44;28.60;;;25.55;;
11425;SDS011;5769;47.998;7.788;2023-06-04T12:37:10;28.45;;;25.42;;
11425;SDS011;5769;47.998;7.788;2023-06-04T12:39:37;30.90;;;27.65;;
11425;SDS011;5769;47.998;7.788;2023-06-04T12:42:05;29.50;;;26.33;;
11425;SDS011;5769;47.998;7.788;2023-06-04T12:44:33;31.40;;;28.10;;
11425;SDS011;5769;47.998;7.788;2023-06-04T12:47:01;29.35;;;26.20;;
11425;SDS011;5769;47.998;7.788;2023-06-04T12:49:28;30.60;;;27.33;;
11425;SDS011;5769;47.998;7.788;2023-06-04T12:51:56;29.92;;;26.77;;
11425;SDS011;5769;47.998;7.788;2023-06-04T12:54:23;28.45;;;25.35;;
11425;SDS011;5769;47.998;7.788;2023-06-04T12:56:50;28.83;;;25.73;;
11425;SDS011;5769;47.998;7.788;2023-06-04T12:59:16;28.75;;;25.70;;
11425;SDS011;5769;47.998;7.788;2023-06-04T13:01:43;29.27;;;26.23;;
11425;SDS011;5769;47.998;7.788;2023-06-04T13:04:10;30.10;;;26.90;;
11425;SDS011;5769;47.998;7.788;2023-06-04T13:06:37;30.27;;;27.08;;
11425;SDS011;5769;47.998;7.788;2023-06-04T13:09:05;29.95;;;26.77;;
11425;SDS011;5769;47.998;7.788;2023-06-04T13:11:34;29.38;;;26.23;;
11425;SDS011;5769;47.998;7.788;2023-06-04T13:14:01;29.00;;;25.85;;
11425;SDS011;5769;47.998;7.788;2023-06-04T13:16:28;27.92;;;25.08;;
11425;SDS011;5769;47.998;7.788;2023-06-04T13:18:54;25.75;;;23.05;;
11425;SDS011;5769;47.998;7.788;2023-06-04T13:21:21;28.25;;;25.20;;
11425;SDS011;5769;47.998;7.788;2023-06-04T13:23:48;27.15;;;24.33;;
11425;SDS011;5769;47.998;7.788;2023-06-04T13:26:16;28.08;;;25.05;;
11425;SDS011;5769;47.998;7.788;2023-06-04T13:28:43;27.65;;;24.70;;
11425;SDS011;5769;47.998;7.788;2023-06-04T13:31:10;27.83;;;24.83;;
11425;SDS011;5769;47.998;7.788;2023-06-04T13:33:37;27.95;;;25.00;;
11425;SDS011;5769;47.998;7.788;2023-06-04T13:36:03;27.50;;;24.50;;
11425;SDS011;5769;47.998;7.788;2023-06-04T13:38:31;28.35;;;25.38;;
11425;SDS011;5769;47.998;7.788;2023-06-04T13:40:58;26.67;;;23.80;;
11425;SDS011;5769;47.998;7.788;2023-06-04T13:43:26;27.27;;;24.30;;
11425;SDS011;5769;47.998;7.788;2023-06-04T13:45:52;25.83;;;23.02;;
11425;SDS011;5769;47.998;7.788;2023-06-04T13:48:19;23.45;;;20.95;;
11425;SDS011;5769;47.998;7.788;2023-06-04T13:50:46;23.65;;;21.33;;
11425;SDS011;5769;47.998;7.788;2023-06-04T13:53:12;24.80;;;22.25;;
11425;SDS011;5769;47.998;7.788;2023-06-04T13:55:39;25.05;;;21.77;;
11425;SDS011;5769;47.998;7.788;2023-06-04T13:58:06;26.15;;;23.45;;
11425;SDS011;5769;47.998;7.788;2023-06-04T14:00:34;25.98;;;23.23;;
11425;SDS011;5769;47.998;7.788;2023-06-04T14:03:00;25.77;;;23.17;;
11425;SDS011;5769;47.998;7.788;2023-06-04T14:05:27;24.73;;;22.15;;
11425;SDS011;5769;47.998;7.788;2023-06-04T14:07:54;25.80;;;23.10;;
11425;SDS011;5769;47.998;7.788;2023-06-04T14:10:21;26.05;;;23.23;;
11425;SDS011;5769;47.998;7.788;2023-06-04T14:12:48;25.40;;;22.80;;
11425;SDS011;5769;47.998;7.788;2023-06-04T14:15:15;25.15;;;22.48;;
11425;SDS011;5769;47.998;7.788;2023-06-04T14:17:43;26.33;;;23.30;;
11425;SDS011;5769;47.998;7.788;2023-06-04T14:20:10;24.60;;;22.00;;
11425;SDS011;5769;47.998;7.788;2023-06-04T14:22:37;27.05;;;24.25;;
11425;SDS011;5769;47.998;7.788;2023-06-04T14:25:04;29.05;;;26.10;;
11425;SDS011;5769;47.998;7.788;2023-06-04T14:27:32;29.65;;;26.50;;
11425;SDS011;5769;47.998;7.788;2023-06-04T14:30:00;31.45;;;27.95;;
11425;SDS011;5769;47.998;7.788;2023-06-04T14:32:27;30.42;;;27.20;;
11425;SDS011;5769;47.998;7.788;2023-06-04T14:34:55;29.73;;;26.55;;
11425;SDS011;5769;47.998;7.788;2023-06-04T14:37:22;27.50;;;24.52;;
11425;SDS011;5769;47.998;7.788;2023-06-04T14:39:49;28.52;;;25.48;;
11425;SDS011;5769;47.998;7.788;2023-06-04T14:42:16;27.02;;;24.23;;
11425;SDS011;5769;47.998;7.788;2023-06-04T14:44:42;27.52;;;24.60;;
11425;SDS011;5769;47.998;7.788;2023-06-04T14:47:10;26.05;;;23.25;;